sensor_id;sensor_type;location;lat;lon;timestamp;P1;durP1;ratioP1;P2;durP2;ratioP2
16262;SDS011;8239;48.594;8.598;2023-08-20T00:02:08;12.70;;;11.40;;
16262;SDS011;8239;48.594;8.598;2023-08-20T00:04:38;13.32;;;12.05;;
16262;SDS011;8239;48.594;8.598;2023-08-20T00:07:06;13.10;;;11.80;;
16262;SDS011;8239;48.594;8.598;2023-08-20T00:09:33;13.38;;;12.07;;
16262;SDS011;8239;48.594;8.598;2023-08-20T00:12:01;12.98;;;11.77;;
16262;SDS011;8239;48.594;8.598;2023-08-20T00:17:20;12.38;;;11.18;;
16262;SDS011;8239;48.594;8.598;2023-08-20T00:19:51;13.75;;;12.45;;
16262;SDS011;8239;48.594;8.598;2023-08-20T00:22:18;13.52;;;12.23;;
16262;SDS011;8239;48.594;8.598;2023-08-20T00:24:47;13.95;;;12.65;;
16262;SDS011;8239;48.594;8.598;2023-08-20T00:27:15;14.40;;;13.13;;
16262;SDS011;8239;48.594;8.598;2023-08-20T00:29:41;13.45;;;12.23;;
16262;SDS011;8239;48.594;8.598;2023-08-20T00:32:08;14.15;;;12.80;;
16262;SDS011;8239;48.594;8.598;2023-08-20T00:34:35;17.10;;;12.90;;
16262;SDS011;8239;48.594;8.598;2023-08-20T00:37:04;14.07;;;12.75;;
16262;SDS011;8239;48.594;8.598;2023-08-20T00:39:31;13.93;;;12.55;;
16262;SDS011;8239;48.594;8.598;2023-08-20T00:41:57;14.70;;;13.20;;
16262;SDS011;8239;48.594;8.598;2023-08-20T00:44:24;14.55;;;13.10;;
16262;SDS011;8239;48.594;8.598;2023-08-20T00:46:51;14.55;;;12.93;;
16262;SDS011;8239;48.594;8.598;2023-08-20T00:49:19;13.45;;;12.23;;
16262;SDS011;8239;48.594;8.598;2023-08-20T00:51:46;15.13;;;12.93;;
16262;SDS011;8239;48.594;8.598;2023-08-20T00:54:16;14.57;;;13.07;;
16262;SDS011;8239;48.594;8.598;2023-08-20T00:56:43;15.68;;;13.68;;
16262;SDS011;8239;48.594;8.598;2023-08-20T00:59:11;14.68;;;13.20;;
16262;SDS011;8239;48.594;8.598;2023-08-20T01:01:38;14.48;;;13.07;;
16262;SDS011;8239;48.594;8.598;2023-08-20T01:04:05;15.00;;;13.50;;
16262;SDS011;8239;48.594;8.598;2023-08-20T01:06:33;14.18;;;12.27;;
16262;SDS011;8239;48.594;8.598;2023-08-20T01:09:10;13.60;;;12.30;;
16262;SDS011;8239;48.594;8.598;2023-08-20T01:11:49;13.95;;;12.38;;
16262;SDS011;8239;48.594;8.598;2023-08-20T01:14:21;14.45;;;12.90;;
16262;SDS011;8239;48.594;8.598;2023-08-20T01:16:48;14.90;;;13.32;;
16262;SDS011;8239;48.594;8.598;2023-08-20T01:19:16;13.63;;;12.38;;
16262;SDS011;8239;48.594;8.598;2023-08-20T01:21:55;14.48;;;13.07;;
16262;SDS011;8239;48.594;8.598;2023-08-20T01:24:46;14.30;;;12.82;;
16262;SDS011;8239;48.594;8.598;2023-08-20T01:27:25;13.77;;;12.43;;
16262;SDS011;8239;48.594;8.598;2023-08-20T01:29:59;14.38;;;12.88;;
16262;SDS011;8239;48.594;8.598;2023-08-20T01:32:28;15.00;;;13.50;;
16262;SDS011;8239;48.594;8.598;2023-08-20T01:34:55;15.05;;;13.45;;
16262;SDS011;8239;48.594;8.598;2023-08-20T01:37:22;14.20;;;12.80;;
16262;SDS011;8239;48.594;8.598;2023-08-20T01:39:49;14.90;;;13.60;;
16262;SDS011;8239;48.594;8.598;2023-08-20T01:42:16;14.68;;;12.68;;
16262;SDS011;8239;48.594;8.598;2023-08-20T01:44:44;16.48;;;13.07;;
16262;SDS011;8239;48.594;8.598;2023-08-20T01:47:12;15.25;;;13.05;;
16262;SDS011;8239;48.594;8.598;2023-08-20T01:49:39;14.40;;;13.10;;
16262;SDS011;8239;48.594;8.598;2023-08-20T01:52:06;14.77;;;13.48;;
16262;SDS011;8239;48.594;8.598;2023-08-20T01:54:33;14.90;;;13.50;;
16262;SDS011;8239;48.594;8.598;2023-08-20T01:57:00;14.60;;;12.77;;
16262;SDS011;8239;48.594;8.598;2023-08-20T01:59:27;14.23;;;12.82;;
16262;SDS011;8239;48.594;8.598;2023-08-20T02:01:54;13.43;;;12.23;;
16262;SDS011;8239;48.594;8.598;2023-08-20T02:04:22;14.68;;;13.25;;
16262;SDS011;8239;48.594;8.598;2023-08-20T02:06:49;13.90;;;12.60;;
16262;SDS011;8239;48.594;8.598;2023-08-20T02:09:16;14.95;;;13.48;;
16262;SDS011;8239;48.594;8.598;2023-08-20T02:11:44;15.02;;;13.45;;
16262;SDS011;8239;48.594;8.598;2023-08-20T02:14:11;14.90;;;13.20;;
16262;SDS011;8239;48.594;8.598;2023-08-20T02:16:38;15.43;;;13.90;;
16262;SDS011;8239;48.594;8.598;2023-08-20T02:19:06;16.17;;;14.52;;
16262;SDS011;8239;48.594;8.598;2023-08-20T02:21:35;15.48;;;13.98;;
16262;SDS011;8239;48.594;8.598;2023-08-20T02:24:02;15.88;;;14.30;;
16262;SDS011;8239;48.594;8.598;2023-08-20T02:26:29;16.63;;;15.00;;
16262;SDS011;8239;48.594;8.598;2023-08-20T02:28:56;17.15;;;15.48;;
16262;SDS011;8239;48.594;8.598;2023-08-20T02:31:23;16.80;;;15.07;;
16262;SDS011;8239;48.594;8.598;2023-08-20T02:33:50;16.90;;;15.05;;
16262;SDS011;8239;48.594;8.598;2023-08-20T02:36:17;19.98;;;17.17;;
16262;SDS011;8239;48.594;8.598;2023-08-20T02:38:45;18.23;;;16.42;;
16262;SDS011;8239;48.594;8.598;2023-08-20T02:41:13;16.05;;;14.50;;
16262;SDS011;8239;48.594;8.598;2023-08-20T02:43:40;15.48;;;13.98;;
16262;SDS011;8239;48.594;8.598;2023-08-20T02:46:06;15.15;;;13.63;;
16262;SDS011;8239;48.594;8.598;2023-08-20T02:48:33;17.67;;;14.73;;
16262;SDS011;8239;48.594;8.598;2023-08-20T02:51:00;17.20;;;15.38;;
16262;SDS011;8239;48.594;8.598;2023-08-20T02:53:28;17.38;;;15.63;;
16262;SDS011;8239;48.594;8.598;2023-08-20T02:55:56;16.83;;;15.13;;
16262;SDS011;8239;48.594;8.598;2023-08-20T02:58:23;16.88;;;15.30;;
16262;SDS011;8239;48.594;8.598;2023-08-20T03:00:50;15.70;;;14.05;;
16262;SDS011;8239;48.594;8.598;2023-08-20T03:03:18;16.10;;;14.45;;
16262;SDS011;8239;48.594;8.598;2023-08-20T03:05:45;15.18;;;13.57;;
16262;SDS011;8239;48.594;8.598;2023-08-20T03:08:12;15.90;;;13.75;;
16262;SDS011;8239;48.594;8.598;2023-08-20T03:10:39;15.85;;;14.32;;
16262;SDS011;8239;48.594;8.598;2023-08-20T03:13:07;16.48;;;14.75;;
16262;SDS011;8239;48.594;8.598;2023-08-20T03:15:34;15.48;;;13.95;;
16262;SDS011;8239;48.594;8.598;2023-08-20T03:18:01;15.55;;;14.07;;
16262;SDS011;8239;48.594;8.598;2023-08-20T03:20:28;17.50;;;15.68;;
16262;SDS011;8239;48.594;8.598;2023-08-20T03:22:57;19.98;;;16.25;;
16262;SDS011;8239;48.594;8.598;2023-08-20T03:25:24;20.00;;;16.42;;
16262;SDS011;8239;48.594;8.598;2023-08-20T03:27:51;18.40;;;16.55;;
16262;SDS011;8239;48.594;8.598;2023-08-20T03:30:19;19.27;;;17.38;;
16262;SDS011;8239;48.594;8.598;2023-08-20T03:32:46;20.10;;;18.00;;
16262;SDS011;8239;48.594;8.598;2023-08-20T03:35:13;18.67;;;16.77;;
16262;SDS011;8239;48.594;8.598;2023-08-20T03:37:41;19.88;;;17.77;;
16262;SDS011;8239;48.594;8.598;2023-08-20T03:40:08;18.88;;;16.25;;
16262;SDS011;8239;48.594;8.598;2023-08-20T03:42:35;16.90;;;14.38;;
16262;SDS011;8239;48.594;8.598;2023-08-20T03:45:02;15.82;;;14.13;;
16262;SDS011;8239;48.594;8.598;2023-08-20T03:47:31;16.80;;;15.00;;
16262;SDS011;8239;48.594;8.598;2023-08-20T03:49:58;17.13;;;15.35;;
16262;SDS011;8239;48.594;8.598;2023-08-20T03:52:25;16.00;;;14.38;;
16262;SDS011;8239;48.594;8.598;2023-08-20T03:54:52;18.08;;;15.07;;
16262;SDS011;8239;48.594;8.598;2023-08-20T03:57:18;15.88;;;14.20;;
16262;SDS011;8239;48.594;8.598;2023-08-20T03:59:45;15.38;;;13.93;;
16262;SDS011;8239;48.594;8.598;2023-08-20T04:02:12;16.95;;;14.57;;
16262;SDS011;8239;48.594;8.598;2023-08-20T04:04:41;16.13;;;14.52;;
16262;SDS011;8239;48.594;8.598;2023-08-20T04:07:08;17.90;;;15.95;;
16262;SDS011;8239;48.594;8.598;2023-08-20T04:09:34;18.80;;;16.85;;
16262;SDS011;8239;48.594;8.598;2023-08-20T04:12:03;16.80;;;15.18;;
16262;SDS011;8239;48.594;8.598;2023-08-20T04:14:30;18.50;;;16.63;;
16262;SDS011;8239;48.594;8.598;2023-08-20T04:16:57;19.85;;;17.63;;
16262;SDS011;8239;48.594;8.598;2023-08-20T04:19:24;18.67;;;16.77;;
16262;SDS011;8239;48.594;8.598;2023-08-20T04:21:53;19.02;;;17.00;;
16262;SDS011;8239;48.594;8.598;2023-08-20T04:24:19;20.20;;;17.90;;
16262;SDS011;8239;48.594;8.598;2023-08-20T04:26:46;20.27;;;17.98;;
16262;SDS011;8239;48.594;8.598;2023-08-20T04:29:13;19.33;;;17.33;;
16262;SDS011;8239;48.594;8.598;2023-08-20T04:31:40;19.08;;;15.90;;
16262;SDS011;8239;48.594;8.598;2023-08-20T04:34:07;17.45;;;15.75;;
16262;SDS011;8239;48.594;8.598;2023-08-20T04:36:34;16.17;;;14.55;;
16262;SDS011;8239;48.594;8.598;2023-08-20T04:39:03;15.02;;;13.55;;
16262;SDS011;8239;48.594;8.598;2023-08-20T04:41:30;15.98;;;14.30;;
16262;SDS011;8239;48.594;8.598;2023-08-20T04:43:57;16.50;;;14.77;;
16262;SDS011;8239;48.594;8.598;2023-08-20T04:46:24;15.38;;;13.98;;
16262;SDS011;8239;48.594;8.598;2023-08-20T04:48:50;15.45;;;13.88;;
16262;SDS011;8239;48.594;8.598;2023-08-20T04:51:18;15.52;;;14.00;;
16262;SDS011;8239;48.594;8.598;2023-08-20T04:53:45;16.58;;;14.95;;
16262;SDS011;8239;48.594;8.598;2023-08-20T04:56:13;14.75;;;13.27;;
16262;SDS011;8239;48.594;8.598;2023-08-20T04:58:40;14.50;;;13.02;;
16262;SDS011;8239;48.594;8.598;2023-08-20T05:01:07;13.90;;;12.55;;
16262;SDS011;8239;48.594;8.598;2023-08-20T05:03:34;11.90;;;10.80;;
16262;SDS011;8239;48.594;8.598;2023-08-20T05:06:01;14.25;;;10.93;;
16262;SDS011;8239;48.594;8.598;2023-08-20T05:08:29;11.93;;;10.88;;
16262;SDS011;8239;48.594;8.598;2023-08-20T05:10:56;13.57;;;10.95;;
16262;SDS011;8239;48.594;8.598;2023-08-20T05:13:24;11.90;;;10.75;;
16262;SDS011;8239;48.594;8.598;2023-08-20T05:15:51;11.40;;;10.40;;
16262;SDS011;8239;48.594;8.598;2023-08-20T05:18:18;11.75;;;10.68;;
16262;SDS011;8239;48.594;8.598;2023-08-20T05:20:45;11.90;;;10.80;;
16262;SDS011;8239;48.594;8.598;2023-08-20T05:23:12;10.65;;;9.65;;
16262;SDS011;8239;48.594;8.598;2023-08-20T05:25:39;11.40;;;10.30;;
16262;SDS011;8239;48.594;8.598;2023-08-20T05:28:06;11.27;;;10.30;;
16262;SDS011;8239;48.594;8.598;2023-08-20T05:30:34;11.15;;;10.00;;
16262;SDS011;8239;48.594;8.598;2023-08-20T05:33:01;10.30;;;9.30;;
16262;SDS011;8239;48.594;8.598;2023-08-20T05:35:28;9.68;;;8.77;;
16262;SDS011;8239;48.594;8.598;2023-08-20T05:37:55;9.48;;;8.10;;
16262;SDS011;8239;48.594;8.598;2023-08-20T05:40:22;10.05;;;9.15;;
16262;SDS011;8239;48.594;8.598;2023-08-20T05:42:49;9.35;;;8.57;;
16262;SDS011;8239;48.594;8.598;2023-08-20T05:45:16;9.73;;;8.73;;
16262;SDS011;8239;48.594;8.598;2023-08-20T05:47:45;9.23;;;8.43;;
16262;SDS011;8239;48.594;8.598;2023-08-20T05:50:11;9.43;;;8.52;;
16262;SDS011;8239;48.594;8.598;2023-08-20T05:52:38;8.52;;;7.72;;
16262;SDS011;8239;48.594;8.598;2023-08-20T05:55:05;9.82;;;8.82;;
16262;SDS011;8239;48.594;8.598;2023-08-20T05:57:33;8.60;;;7.85;;
16262;SDS011;8239;48.594;8.598;2023-08-20T06:00:01;8.73;;;8.02;;
16262;SDS011;8239;48.594;8.598;2023-08-20T06:02:29;8.05;;;7.25;;
16262;SDS011;8239;48.594;8.598;2023-08-20T06:04:58;8.20;;;7.50;;
16262;SDS011;8239;48.594;8.598;2023-08-20T06:07:25;8.55;;;7.53;;
16262;SDS011;8239;48.594;8.598;2023-08-20T06:09:52;7.85;;;7.15;;
16262;SDS011;8239;48.594;8.598;2023-08-20T06:12:19;9.82;;;7.32;;
16262;SDS011;8239;48.594;8.598;2023-08-20T06:14:46;8.10;;;7.32;;
16262;SDS011;8239;48.594;8.598;2023-08-20T06:17:12;8.02;;;7.22;;
16262;SDS011;8239;48.594;8.598;2023-08-20T06:19:39;7.65;;;6.80;;
16262;SDS011;8239;48.594;8.598;2023-08-20T06:22:08;7.85;;;7.15;;
16262;SDS011;8239;48.594;8.598;2023-08-20T06:24:35;7.30;;;6.70;;
16262;SDS011;8239;48.594;8.598;2023-08-20T06:27:02;8.75;;;7.13;;
16262;SDS011;8239;48.594;8.598;2023-08-20T06:29:30;7.35;;;6.65;;
16262;SDS011;8239;48.594;8.598;2023-08-20T06:31:56;8.63;;;7.53;;
16262;SDS011;8239;48.594;8.598;2023-08-20T06:34:23;8.50;;;7.70;;
16262;SDS011;8239;48.594;8.598;2023-08-20T06:36:50;8.35;;;7.55;;
16262;SDS011;8239;48.594;8.598;2023-08-20T06:39:20;7.97;;;7.28;;
16262;SDS011;8239;48.594;8.598;2023-08-20T06:41:47;8.45;;;7.65;;
16262;SDS011;8239;48.594;8.598;2023-08-20T06:44:18;7.95;;;7.35;;
16262;SDS011;8239;48.594;8.598;2023-08-20T06:46:45;7.22;;;6.63;;
16262;SDS011;8239;48.594;8.598;2023-08-20T06:49:12;7.18;;;6.57;;
16262;SDS011;8239;48.594;8.598;2023-08-20T06:51:39;6.85;;;6.25;;
16262;SDS011;8239;48.594;8.598;2023-08-20T06:54:06;7.35;;;6.47;;
16262;SDS011;8239;48.594;8.598;2023-08-20T06:56:34;7.25;;;6.68;;
16262;SDS011;8239;48.594;8.598;2023-08-20T06:59:02;6.93;;;6.13;;
16262;SDS011;8239;48.594;8.598;2023-08-20T07:01:29;6.93;;;6.32;;
16262;SDS011;8239;48.594;8.598;2023-08-20T07:03:56;6.95;;;6.35;;
16262;SDS011;8239;48.594;8.598;2023-08-20T07:06:23;6.93;;;6.18;;
16262;SDS011;8239;48.594;8.598;2023-08-20T07:08:50;6.30;;;5.53;;
16262;SDS011;8239;48.594;8.598;2023-08-20T07:11:17;6.38;;;5.88;;
16262;SDS011;8239;48.594;8.598;2023-08-20T07:13:46;5.93;;;5.43;;
16262;SDS011;8239;48.594;8.598;2023-08-20T07:16:13;5.70;;;5.20;;
16262;SDS011;8239;48.594;8.598;2023-08-20T07:18:40;6.18;;;5.57;;
16262;SDS011;8239;48.594;8.598;2023-08-20T07:21:07;6.18;;;5.68;;
16262;SDS011;8239;48.594;8.598;2023-08-20T07:23:34;6.63;;;6.03;;
16262;SDS011;8239;48.594;8.598;2023-08-20T07:26:04;6.53;;;5.93;;
16262;SDS011;8239;48.594;8.598;2023-08-20T07:28:32;6.32;;;5.82;;
16262;SDS011;8239;48.594;8.598;2023-08-20T07:31:14;6.63;;;6.03;;
16262;SDS011;8239;48.594;8.598;2023-08-20T07:33:41;7.05;;;6.35;;
16262;SDS011;8239;48.594;8.598;2023-08-20T07:36:12;7.18;;;6.47;;
16262;SDS011;8239;48.594;8.598;2023-08-20T07:38:39;6.95;;;6.47;;
16262;SDS011;8239;48.594;8.598;2023-08-20T07:41:07;7.30;;;6.07;;
16262;SDS011;8239;48.594;8.598;2023-08-20T07:43:36;6.82;;;6.22;;
16262;SDS011;8239;48.594;8.598;2023-08-20T07:46:04;7.00;;;6.32;;
16262;SDS011;8239;48.594;8.598;2023-08-20T07:48:32;6.63;;;6.03;;
16262;SDS011;8239;48.594;8.598;2023-08-20T07:50:59;6.93;;;6.28;;
16262;SDS011;8239;48.594;8.598;2023-08-20T07:53:27;8.77;;;7.00;;
16262;SDS011;8239;48.594;8.598;2023-08-20T07:55:54;6.90;;;6.35;;
16262;SDS011;8239;48.594;8.598;2023-08-20T07:58:21;6.70;;;6.10;;
16262;SDS011;8239;48.594;8.598;2023-08-20T08:00:48;7.45;;;6.75;;
16262;SDS011;8239;48.594;8.598;2023-08-20T08:03:15;7.40;;;6.80;;
16262;SDS011;8239;48.594;8.598;2023-08-20T08:05:46;7.97;;;7.18;;
16262;SDS011;8239;48.594;8.598;2023-08-20T08:08:14;7.90;;;7.20;;
16262;SDS011;8239;48.594;8.598;2023-08-20T08:10:42;7.28;;;6.57;;
16262;SDS011;8239;48.594;8.598;2023-08-20T08:13:10;7.75;;;6.15;;
16262;SDS011;8239;48.594;8.598;2023-08-20T08:15:37;7.32;;;6.63;;
16262;SDS011;8239;48.594;8.598;2023-08-20T08:18:04;7.93;;;6.68;;
16262;SDS011;8239;48.594;8.598;2023-08-20T08:20:31;7.55;;;6.85;;
16262;SDS011;8239;48.594;8.598;2023-08-20T08:23:00;7.20;;;6.57;;
16262;SDS011;8239;48.594;8.598;2023-08-20T08:25:27;7.25;;;6.65;;
16262;SDS011;8239;48.594;8.598;2023-08-20T08:27:54;7.50;;;6.95;;
16262;SDS011;8239;48.594;8.598;2023-08-20T08:30:21;7.40;;;6.63;;
16262;SDS011;8239;48.594;8.598;2023-08-20T08:32:49;7.20;;;6.50;;
16262;SDS011;8239;48.594;8.598;2023-08-20T08:35:16;6.47;;;5.97;;
16262;SDS011;8239;48.594;8.598;2023-08-20T08:37:43;6.85;;;6.45;;
16262;SDS011;8239;48.594;8.598;2023-08-20T08:40:12;7.20;;;6.57;;
16262;SDS011;8239;48.594;8.598;2023-08-20T08:42:40;6.88;;;6.32;;
16262;SDS011;8239;48.594;8.598;2023-08-20T08:45:08;7.35;;;6.72;;
16262;SDS011;8239;48.594;8.598;2023-08-20T08:47:36;6.70;;;6.20;;
16262;SDS011;8239;48.594;8.598;2023-08-20T08:50:06;7.28;;;6.57;;
16262;SDS011;8239;48.594;8.598;2023-08-20T08:52:35;6.78;;;6.18;;
16262;SDS011;8239;48.594;8.598;2023-08-20T08:55:03;6.93;;;6.32;;
16262;SDS011;8239;48.594;8.598;2023-08-20T08:57:34;6.80;;;6.25;;
16262;SDS011;8239;48.594;8.598;2023-08-20T09:00:01;6.20;;;5.70;;
16262;SDS011;8239;48.594;8.598;2023-08-20T09:02:29;7.57;;;6.50;;
16262;SDS011;8239;48.594;8.598;2023-08-20T09:04:56;6.90;;;6.18;;
16262;SDS011;8239;48.594;8.598;2023-08-20T09:07:24;6.95;;;6.32;;
16262;SDS011;8239;48.594;8.598;2023-08-20T09:09:52;6.28;;;5.78;;
16262;SDS011;8239;48.594;8.598;2023-08-20T09:12:24;6.30;;;5.80;;
16262;SDS011;8239;48.594;8.598;2023-08-20T09:14:53;6.95;;;6.25;;
16262;SDS011;8239;48.594;8.598;2023-08-20T09:17:24;7.22;;;6.20;;
16262;SDS011;8239;48.594;8.598;2023-08-20T09:19:53;6.78;;;6.28;;
16262;SDS011;8239;48.594;8.598;2023-08-20T09:22:22;6.45;;;5.93;;
16262;SDS011;8239;48.594;8.598;2023-08-20T09:24:52;7.05;;;6.22;;
16262;SDS011;8239;48.594;8.598;2023-08-20T09:27:20;6.70;;;6.00;;
16262;SDS011;8239;48.594;8.598;2023-08-20T09:29:48;7.03;;;6.32;;
16262;SDS011;8239;48.594;8.598;2023-08-20T09:32:18;6.57;;;6.00;;
16262;SDS011;8239;48.594;8.598;2023-08-20T09:34:46;6.20;;;5.78;;
16262;SDS011;8239;48.594;8.598;2023-08-20T09:37:15;7.10;;;6.50;;
16262;SDS011;8239;48.594;8.598;2023-08-20T09:39:42;6.65;;;6.00;;
16262;SDS011;8239;48.594;8.598;2023-08-20T09:42:09;6.68;;;6.18;;
16262;SDS011;8239;48.594;8.598;2023-08-20T09:44:37;6.38;;;5.88;;
16262;SDS011;8239;48.594;8.598;2023-08-20T09:47:06;6.60;;;6.03;;
16262;SDS011;8239;48.594;8.598;2023-08-20T09:49:37;6.22;;;5.72;;
16262;SDS011;8239;48.594;8.598;2023-08-20T09:52:05;5.93;;;5.53;;
16262;SDS011;8239;48.594;8.598;2023-08-20T09:54:36;6.03;;;5.50;;
16262;SDS011;8239;48.594;8.598;2023-08-20T09:57:21;6.32;;;5.72;;
16262;SDS011;8239;48.594;8.598;2023-08-20T09:59:54;6.00;;;5.40;;
16262;SDS011;8239;48.594;8.598;2023-08-20T10:02:21;6.45;;;5.72;;
16262;SDS011;8239;48.594;8.598;2023-08-20T10:04:50;5.95;;;5.40;;
16262;SDS011;8239;48.594;8.598;2023-08-20T10:07:18;6.68;;;5.43;;
16262;SDS011;8239;48.594;8.598;2023-08-20T10:09:47;6.20;;;5.70;;
16262;SDS011;8239;48.594;8.598;2023-08-20T10:12:16;6.22;;;5.38;;
16262;SDS011;8239;48.594;8.598;2023-08-20T10:14:43;5.65;;;5.15;;
16262;SDS011;8239;48.594;8.598;2023-08-20T10:17:11;6.95;;;5.13;;
16262;SDS011;8239;48.594;8.598;2023-08-20T10:19:40;5.60;;;5.10;;
16262;SDS011;8239;48.594;8.598;2023-08-20T10:22:09;6.95;;;5.00;;
16262;SDS011;8239;48.594;8.598;2023-08-20T10:24:40;5.95;;;5.03;;
16262;SDS011;8239;48.594;8.598;2023-08-20T10:27:12;5.32;;;4.80;;
16262;SDS011;8239;48.594;8.598;2023-08-20T10:29:49;5.57;;;5.10;;
16262;SDS011;8239;48.594;8.598;2023-08-20T10:32:18;5.50;;;4.95;;
16262;SDS011;8239;48.594;8.598;2023-08-20T10:34:49;5.32;;;4.93;;
16262;SDS011;8239;48.594;8.598;2023-08-20T10:37:25;5.28;;;4.88;;
16262;SDS011;8239;48.594;8.598;2023-08-20T10:39:53;5.00;;;4.70;;
16262;SDS011;8239;48.594;8.598;2023-08-20T10:42:21;5.25;;;4.75;;
16262;SDS011;8239;48.594;8.598;2023-08-20T10:45:01;5.60;;;5.10;;
16262;SDS011;8239;48.594;8.598;2023-08-20T10:47:37;5.70;;;5.28;;
16262;SDS011;8239;48.594;8.598;2023-08-20T10:50:10;5.97;;;4.95;;
16262;SDS011;8239;48.594;8.598;2023-08-20T10:52:46;5.35;;;4.95;;
16262;SDS011;8239;48.594;8.598;2023-08-20T10:55:14;5.78;;;5.25;;
16262;SDS011;8239;48.594;8.598;2023-08-20T10:57:42;5.50;;;5.00;;
16262;SDS011;8239;48.594;8.598;2023-08-20T11:00:09;5.68;;;4.65;;
16262;SDS011;8239;48.594;8.598;2023-08-20T11:02:42;6.65;;;4.90;;
16262;SDS011;8239;48.594;8.598;2023-08-20T11:05:15;5.10;;;4.70;;
16262;SDS011;8239;48.594;8.598;2023-08-20T11:07:45;4.85;;;4.32;;
16262;SDS011;8239;48.594;8.598;2023-08-20T11:10:14;6.55;;;4.85;;
16262;SDS011;8239;48.594;8.598;2023-08-20T11:12:41;5.85;;;5.25;;
16262;SDS011;8239;48.594;8.598;2023-08-20T11:15:09;5.07;;;4.70;;
16262;SDS011;8239;48.594;8.598;2023-08-20T11:17:40;5.40;;;4.90;;
16262;SDS011;8239;48.594;8.598;2023-08-20T11:20:09;6.28;;;5.00;;
16262;SDS011;8239;48.594;8.598;2023-08-20T11:22:37;5.47;;;4.97;;
16262;SDS011;8239;48.594;8.598;2023-08-20T11:25:09;5.93;;;5.32;;
16262;SDS011;8239;48.594;8.598;2023-08-20T11:27:39;5.40;;;4.90;;
16262;SDS011;8239;48.594;8.598;2023-08-20T11:30:07;5.30;;;4.80;;
16262;SDS011;8239;48.594;8.598;2023-08-20T11:32:37;5.22;;;4.72;;
16262;SDS011;8239;48.594;8.598;2023-08-20T11:35:04;5.80;;;5.10;;
16262;SDS011;8239;48.594;8.598;2023-08-20T11:37:32;5.53;;;4.95;;
16262;SDS011;8239;48.594;8.598;2023-08-20T11:39:59;6.97;;;5.30;;
16262;SDS011;8239;48.594;8.598;2023-08-20T11:42:27;6.70;;;5.28;;
16262;SDS011;8239;48.594;8.598;2023-08-20T11:44:55;5.63;;;5.13;;
16262;SDS011;8239;48.594;8.598;2023-08-20T11:47:22;5.63;;;5.13;;
16262;SDS011;8239;48.594;8.598;2023-08-20T11:50:01;5.72;;;5.18;;
16262;SDS011;8239;48.594;8.598;2023-08-20T11:52:30;6.50;;;4.90;;
16262;SDS011;8239;48.594;8.598;2023-08-20T11:54:57;5.72;;;5.22;;
16262;SDS011;8239;48.594;8.598;2023-08-20T11:57:24;8.43;;;4.90;;
16262;SDS011;8239;48.594;8.598;2023-08-20T11:59:54;5.88;;;5.18;;
16262;SDS011;8239;48.594;8.598;2023-08-20T12:02:24;5.50;;;4.78;;
16262;SDS011;8239;48.594;8.598;2023-08-20T12:04:51;5.93;;;5.00;;
16262;SDS011;8239;48.594;8.598;2023-08-20T12:07:24;5.60;;;5.07;;
16262;SDS011;8239;48.594;8.598;2023-08-20T12:09:51;6.15;;;5.53;;
16262;SDS011;8239;48.594;8.598;2023-08-20T12:12:19;5.75;;;5.25;;
16262;SDS011;8239;48.594;8.598;2023-08-20T12:14:47;6.43;;;5.30;;
16262;SDS011;8239;48.594;8.598;2023-08-20T12:17:16;5.68;;;5.28;;
16262;SDS011;8239;48.594;8.598;2023-08-20T12:19:43;6.38;;;5.07;;
16262;SDS011;8239;48.594;8.598;2023-08-20T12:22:10;5.38;;;4.93;;
16262;SDS011;8239;48.594;8.598;2023-08-20T12:24:37;6.60;;;5.15;;
16262;SDS011;8239;48.594;8.598;2023-08-20T12:27:04;5.65;;;5.03;;
16262;SDS011;8239;48.594;8.598;2023-08-20T12:29:31;9.32;;;5.45;;
16262;SDS011;8239;48.594;8.598;2023-08-20T12:31:59;5.70;;;5.20;;
16262;SDS011;8239;48.594;8.598;2023-08-20T12:34:29;7.70;;;5.03;;
16262;SDS011;8239;48.594;8.598;2023-08-20T12:36:56;5.85;;;5.15;;
16262;SDS011;8239;48.594;8.598;2023-08-20T12:39:23;5.80;;;5.30;;
16262;SDS011;8239;48.594;8.598;2023-08-20T12:41:50;5.93;;;5.32;;
16262;SDS011;8239;48.594;8.598;2023-08-20T12:44:17;4.90;;;4.45;;
16262;SDS011;8239;48.594;8.598;2023-08-20T12:46:44;6.53;;;4.65;;
16262;SDS011;8239;48.594;8.598;2023-08-20T12:49:12;7.38;;;5.32;;
16262;SDS011;8239;48.594;8.598;2023-08-20T12:51:39;7.03;;;4.93;;
16262;SDS011;8239;48.594;8.598;2023-08-20T12:54:06;5.57;;;4.97;;
16262;SDS011;8239;48.594;8.598;2023-08-20T12:56:33;5.20;;;4.80;;
16262;SDS011;8239;48.594;8.598;2023-08-20T12:59:00;6.60;;;5.25;;
16262;SDS011;8239;48.594;8.598;2023-08-20T13:01:27;7.88;;;5.00;;
16262;SDS011;8239;48.594;8.598;2023-08-20T13:03:55;6.97;;;4.82;;
16262;SDS011;8239;48.594;8.598;2023-08-20T13:06:24;5.75;;;4.97;;
16262;SDS011;8239;48.594;8.598;2023-08-20T13:08:51;5.93;;;4.70;;
16262;SDS011;8239;48.594;8.598;2023-08-20T13:11:19;5.88;;;5.18;;
16262;SDS011;8239;48.594;8.598;2023-08-20T13:13:48;5.28;;;4.80;;
16262;SDS011;8239;48.594;8.598;2023-08-20T13:16:15;8.15;;;5.20;;
16262;SDS011;8239;48.594;8.598;2023-08-20T13:18:44;7.43;;;5.28;;
16262;SDS011;8239;48.594;8.598;2023-08-20T13:21:12;5.18;;;4.72;;
16262;SDS011;8239;48.594;8.598;2023-08-20T13:23:40;6.85;;;5.13;;
16262;SDS011;8239;48.594;8.598;2023-08-20T13:26:09;5.50;;;5.00;;
16262;SDS011;8239;48.594;8.598;2023-08-20T13:28:36;6.30;;;4.85;;
16262;SDS011;8239;48.594;8.598;2023-08-20T13:33:40;5.38;;;4.88;;
16262;SDS011;8239;48.594;8.598;2023-08-20T13:36:07;6.18;;;5.07;;
16262;SDS011;8239;48.594;8.598;2023-08-20T13:38:34;6.57;;;5.07;;
16262;SDS011;8239;48.594;8.598;2023-08-20T13:41:02;7.88;;;5.15;;
16262;SDS011;8239;48.594;8.598;2023-08-20T13:43:29;6.00;;;5.20;;
16262;SDS011;8239;48.594;8.598;2023-08-20T13:45:56;5.80;;;5.20;;
16262;SDS011;8239;48.594;8.598;2023-08-20T13:48:23;6.68;;;5.70;;
16262;SDS011;8239;48.594;8.598;2023-08-20T13:50:50;8.30;;;5.10;;
16262;SDS011;8239;48.594;8.598;2023-08-20T13:53:17;5.72;;;5.22;;
16262;SDS011;8239;48.594;8.598;2023-08-20T13:55:44;8.20;;;4.88;;
16262;SDS011;8239;48.594;8.598;2023-08-20T13:58:12;5.65;;;5.00;;
16262;SDS011;8239;48.594;8.598;2023-08-20T14:00:39;6.93;;;5.75;;
16262;SDS011;8239;48.594;8.598;2023-08-20T14:03:07;5.80;;;4.93;;
16262;SDS011;8239;48.594;8.598;2023-08-20T14:05:34;6.65;;;5.45;;
16262;SDS011;8239;48.594;8.598;2023-08-20T14:08:00;6.00;;;5.28;;
16262;SDS011;8239;48.594;8.598;2023-08-20T14:10:28;5.97;;;5.22;;
16262;SDS011;8239;48.594;8.598;2023-08-20T14:12:55;6.00;;;5.40;;
16262;SDS011;8239;48.594;8.598;2023-08-20T14:15:23;6.43;;;5.82;;
16262;SDS011;8239;48.594;8.598;2023-08-20T14:17:51;6.50;;;5.90;;
16262;SDS011;8239;48.594;8.598;2023-08-20T14:20:18;6.07;;;5.40;;
16262;SDS011;8239;48.594;8.598;2023-08-20T14:22:45;7.22;;;5.60;;
16262;SDS011;8239;48.594;8.598;2023-08-20T14:25:11;5.95;;;5.43;;
16262;SDS011;8239;48.594;8.598;2023-08-20T14:27:38;7.10;;;6.10;;
16262;SDS011;8239;48.594;8.598;2023-08-20T14:30:06;6.53;;;5.93;;
16262;SDS011;8239;48.594;8.598;2023-08-20T14:32:36;6.65;;;5.82;;
16262;SDS011;8239;48.594;8.598;2023-08-20T14:35:04;8.07;;;6.15;;
16262;SDS011;8239;48.594;8.598;2023-08-20T14:37:31;6.10;;;5.50;;
16262;SDS011;8239;48.594;8.598;2023-08-20T14:39:58;8.70;;;5.70;;
16262;SDS011;8239;48.594;8.598;2023-08-20T14:42:25;6.78;;;5.90;;
16262;SDS011;8239;48.594;8.598;2023-08-20T14:44:52;6.30;;;5.72;;
16262;SDS011;8239;48.594;8.598;2023-08-20T14:47:23;6.80;;;5.25;;
16262;SDS011;8239;48.594;8.598;2023-08-20T14:49:52;5.47;;;5.07;;
16262;SDS011;8239;48.594;8.598;2023-08-20T14:52:19;6.15;;;5.53;;
16262;SDS011;8239;48.594;8.598;2023-08-20T14:54:46;6.03;;;5.43;;
16262;SDS011;8239;48.594;8.598;2023-08-20T14:57:13;6.10;;;5.53;;
16262;SDS011;8239;48.594;8.598;2023-08-20T14:59:42;5.60;;;5.20;;
16262;SDS011;8239;48.594;8.598;2023-08-20T15:02:09;7.88;;;5.22;;